Terminal Aerodrome Forecast
Issued by NWS

Home | Current Version | Previous Version | Text Only | Print | Product List | Glossary Off
Versions: 1 2 3 4 5 6 7 8 9 10 11 12 13 14 15

000
FTUS45 KGGW 200526
TAFOLF
TAF
KOLF 200526Z 2006/2106 05006KT P6SM BKN120
     FM201300 10006KT P6SM BKN110
     FM201800 13014KT P6SM BKN130
     FM210000 18010KT P6SM SCT140
     FM210200 10009KT P6SM SCT130
     FM210500 17006KT P6SM SCT100=

USA.gov is the U.S. government's official web portal to all federal, state and local government web resources and services.